sensor_id;sensor_type;location;lat;lon;timestamp;pressure;altitude;pressure_sealevel;temperature
10598;BMP180;5346;48.766;8.674;2022-07-15T00:00:58;94553.00;;;15.60
10598;BMP180;5346;48.766;8.674;2022-07-15T00:03:25;94577.00;;;15.70
10598;BMP180;5346;48.766;8.674;2022-07-15T00:05:59;94571.00;;;15.60
10598;BMP180;5346;48.766;8.674;2022-07-15T00:08:27;94565.00;;;15.40
10598;BMP180;5346;48.766;8.674;2022-07-15T00:10:55;94565.00;;;15.50
10598;BMP180;5346;48.766;8.674;2022-07-15T00:13:29;94547.00;;;15.40
10598;BMP180;5346;48.766;8.674;2022-07-15T00:15:57;94554.00;;;15.20
10598;BMP180;5346;48.766;8.674;2022-07-15T00:18:25;94546.00;;;15.20
10598;BMP180;5346;48.766;8.674;2022-07-15T00:20:58;94541.00;;;15.10
10598;BMP180;5346;48.766;8.674;2022-07-15T00:23:25;94557.00;;;15.10
10598;BMP180;5346;48.766;8.674;2022-07-15T00:25:55;94559.00;;;15.10
10598;BMP180;5346;48.766;8.674;2022-07-15T00:28:29;94543.00;;;15.20
10598;BMP180;5346;48.766;8.674;2022-07-15T00:30:56;94563.00;;;15.00
10598;BMP180;5346;48.766;8.674;2022-07-15T00:33:23;94542.00;;;15.20
10598;BMP180;5346;48.766;8.674;2022-07-15T00:35:57;94548.00;;;15.20
10598;BMP180;5346;48.766;8.674;2022-07-15T00:38:31;94548.00;;;15.10
10598;BMP180;5346;48.766;8.674;2022-07-15T00:41:04;94542.00;;;15.00
10598;BMP180;5346;48.766;8.674;2022-07-15T00:43:31;94531.00;;;15.10
10598;BMP180;5346;48.766;8.674;2022-07-15T00:45:58;94540.00;;;14.90
10598;BMP180;5346;48.766;8.674;2022-07-15T00:48:32;94543.00;;;14.80
10598;BMP180;5346;48.766;8.674;2022-07-15T00:50:59;94557.00;;;14.70
10598;BMP180;5346;48.766;8.674;2022-07-15T00:53:29;94556.00;;;14.70
10598;BMP180;5346;48.766;8.674;2022-07-15T00:56:07;94548.00;;;14.60
10598;BMP180;5346;48.766;8.674;2022-07-15T00:58:42;94538.00;;;14.50
10598;BMP180;5346;48.766;8.674;2022-07-15T01:01:19;94541.00;;;14.40
10598;BMP180;5346;48.766;8.674;2022-07-15T01:03:49;94522.00;;;14.30
10598;BMP180;5346;48.766;8.674;2022-07-15T01:06:16;94549.00;;;14.20
10598;BMP180;5346;48.766;8.674;2022-07-15T01:08:49;94548.00;;;14.20
10598;BMP180;5346;48.766;8.674;2022-07-15T01:11:17;94549.00;;;14.10
10598;BMP180;5346;48.766;8.674;2022-07-15T01:13:44;94530.00;;;14.10
10598;BMP180;5346;48.766;8.674;2022-07-15T01:16:18;94550.00;;;14.00
10598;BMP180;5346;48.766;8.674;2022-07-15T01:18:45;94546.00;;;14.00
10598;BMP180;5346;48.766;8.674;2022-07-15T01:21:12;94535.00;;;14.00
10598;BMP180;5346;48.766;8.674;2022-07-15T01:23:46;94529.00;;;14.00
10598;BMP180;5346;48.766;8.674;2022-07-15T01:26:14;94553.00;;;13.90
10598;BMP180;5346;48.766;8.674;2022-07-15T01:28:42;94553.00;;;13.90
10598;BMP180;5346;48.766;8.674;2022-07-15T01:31:16;94537.00;;;13.90
10598;BMP180;5346;48.766;8.674;2022-07-15T01:33:43;94530.00;;;13.90
10598;BMP180;5346;48.766;8.674;2022-07-15T01:36:10;94548.00;;;13.80
10598;BMP180;5346;48.766;8.674;2022-07-15T01:38:44;94519.00;;;13.90
10598;BMP180;5346;48.766;8.674;2022-07-15T01:41:37;94524.00;;;14.00
10598;BMP180;5346;48.766;8.674;2022-07-15T01:44:12;94542.00;;;14.10
10598;BMP180;5346;48.766;8.674;2022-07-15T01:46:40;94548.00;;;14.00
10598;BMP180;5346;48.766;8.674;2022-07-15T01:49:08;94533.00;;;14.10
10598;BMP180;5346;48.766;8.674;2022-07-15T01:52:01;94530.00;;;14.10
10598;BMP180;5346;48.766;8.674;2022-07-15T01:54:31;94537.00;;;14.10
10598;BMP180;5346;48.766;8.674;2022-07-15T01:56:59;94536.00;;;14.00
10598;BMP180;5346;48.766;8.674;2022-07-15T01:59:33;94519.00;;;14.00
10598;BMP180;5346;48.766;8.674;2022-07-15T02:02:00;94530.00;;;13.90
10598;BMP180;5346;48.766;8.674;2022-07-15T02:04:28;94532.00;;;13.90
10598;BMP180;5346;48.766;8.674;2022-07-15T02:07:02;94527.00;;;13.80
10598;BMP180;5346;48.766;8.674;2022-07-15T02:09:29;94516.00;;;13.90
10598;BMP180;5346;48.766;8.674;2022-07-15T02:11:56;94517.00;;;13.90
10598;BMP180;5346;48.766;8.674;2022-07-15T02:14:29;94527.00;;;13.80
10598;BMP180;5346;48.766;8.674;2022-07-15T02:16:56;94516.00;;;13.60
10598;BMP180;5346;48.766;8.674;2022-07-15T02:19:23;94495.00;;;13.70
10598;BMP180;5346;48.766;8.674;2022-07-15T02:21:57;94524.00;;;13.70
10598;BMP180;5346;48.766;8.674;2022-07-15T02:24:24;94522.00;;;13.70
10598;BMP180;5346;48.766;8.674;2022-07-15T02:26:51;94521.00;;;13.70
10598;BMP180;5346;48.766;8.674;2022-07-15T02:29:25;94512.00;;;13.70
10598;BMP180;5346;48.766;8.674;2022-07-15T02:31:52;94526.00;;;13.60
10598;BMP180;5346;48.766;8.674;2022-07-15T02:34:19;94511.00;;;13.60
10598;BMP180;5346;48.766;8.674;2022-07-15T02:37:00;94524.00;;;13.60
10598;BMP180;5346;48.766;8.674;2022-07-15T02:39:40;94498.00;;;13.60
10598;BMP180;5346;48.766;8.674;2022-07-15T02:42:13;94516.00;;;13.60
10598;BMP180;5346;48.766;8.674;2022-07-15T02:44:40;94496.00;;;13.60
10598;BMP180;5346;48.766;8.674;2022-07-15T02:47:07;94520.00;;;13.50
10598;BMP180;5346;48.766;8.674;2022-07-15T02:49:41;94521.00;;;13.60
10598;BMP180;5346;48.766;8.674;2022-07-15T02:52:08;94521.00;;;13.60
10598;BMP180;5346;48.766;8.674;2022-07-15T02:54:35;94523.00;;;13.60
10598;BMP180;5346;48.766;8.674;2022-07-15T02:57:09;94508.00;;;13.60
10598;BMP180;5346;48.766;8.674;2022-07-15T02:59:36;94517.00;;;13.50
10598;BMP180;5346;48.766;8.674;2022-07-15T03:02:04;94527.00;;;13.50
10598;BMP180;5346;48.766;8.674;2022-07-15T03:04:37;94503.00;;;13.50
10598;BMP180;5346;48.766;8.674;2022-07-15T03:07:11;94527.00;;;13.50
10598;BMP180;5346;48.766;8.674;2022-07-15T03:09:44;94529.00;;;13.50
10598;BMP180;5346;48.766;8.674;2022-07-15T03:12:11;94536.00;;;13.50
10598;BMP180;5346;48.766;8.674;2022-07-15T03:14:39;94532.00;;;13.60
10598;BMP180;5346;48.766;8.674;2022-07-15T03:17:13;94513.00;;;13.60
10598;BMP180;5346;48.766;8.674;2022-07-15T03:19:40;94513.00;;;13.30
10598;BMP180;5346;48.766;8.674;2022-07-15T03:22:08;94536.00;;;13.20
10598;BMP180;5346;48.766;8.674;2022-07-15T03:24:42;94541.00;;;13.10
10598;BMP180;5346;48.766;8.674;2022-07-15T03:27:10;94519.00;;;13.10
10598;BMP180;5346;48.766;8.674;2022-07-15T03:29:37;94534.00;;;13.30
10598;BMP180;5346;48.766;8.674;2022-07-15T03:32:11;94538.00;;;13.40
10598;BMP180;5346;48.766;8.674;2022-07-15T03:34:43;94538.00;;;13.50
10598;BMP180;5346;48.766;8.674;2022-07-15T03:37:10;94516.00;;;13.60
10598;BMP180;5346;48.766;8.674;2022-07-15T03:39:44;94528.00;;;13.40
10598;BMP180;5346;48.766;8.674;2022-07-15T03:42:19;94512.00;;;13.40
10598;BMP180;5346;48.766;8.674;2022-07-15T03:44:52;94526.00;;;13.50
10598;BMP180;5346;48.766;8.674;2022-07-15T03:47:19;94513.00;;;13.40
10598;BMP180;5346;48.766;8.674;2022-07-15T03:49:47;94539.00;;;13.40
10598;BMP180;5346;48.766;8.674;2022-07-15T03:52:21;94528.00;;;13.50
10598;BMP180;5346;48.766;8.674;2022-07-15T03:54:48;94521.00;;;13.60
10598;BMP180;5346;48.766;8.674;2022-07-15T03:57:15;94533.00;;;13.80
10598;BMP180;5346;48.766;8.674;2022-07-15T03:59:49;94528.00;;;13.80
10598;BMP180;5346;48.766;8.674;2022-07-15T04:02:16;94535.00;;;13.90
10598;BMP180;5346;48.766;8.674;2022-07-15T04:04:43;94520.00;;;13.90
10598;BMP180;5346;48.766;8.674;2022-07-15T04:07:17;94526.00;;;13.90
10598;BMP180;5346;48.766;8.674;2022-07-15T04:09:44;94531.00;;;14.00
10598;BMP180;5346;48.766;8.674;2022-07-15T04:12:11;94485.00;;;14.00
10598;BMP180;5346;48.766;8.674;2022-07-15T04:14:45;94515.00;;;14.20
10598;BMP180;5346;48.766;8.674;2022-07-15T04:17:12;94547.00;;;14.30
10598;BMP180;5346;48.766;8.674;2022-07-15T04:19:40;94529.00;;;14.40
10598;BMP180;5346;48.766;8.674;2022-07-15T04:22:14;94521.00;;;14.50
10598;BMP180;5346;48.766;8.674;2022-07-15T04:24:41;94537.00;;;14.60
10598;BMP180;5346;48.766;8.674;2022-07-15T04:27:08;94510.00;;;14.60
10598;BMP180;5346;48.766;8.674;2022-07-15T04:29:43;94537.00;;;14.70
10598;BMP180;5346;48.766;8.674;2022-07-15T04:32:10;94520.00;;;14.70
10598;BMP180;5346;48.766;8.674;2022-07-15T04:34:37;94543.00;;;14.80
10598;BMP180;5346;48.766;8.674;2022-07-15T04:37:19;94533.00;;;14.80
10598;BMP180;5346;48.766;8.674;2022-07-15T04:40:08;94542.00;;;14.90
10598;BMP180;5346;48.766;8.674;2022-07-15T04:42:42;94531.00;;;14.90
10598;BMP180;5346;48.766;8.674;2022-07-15T04:45:10;94499.00;;;15.00
10598;BMP180;5346;48.766;8.674;2022-07-15T04:47:38;94522.00;;;15.10
10598;BMP180;5346;48.766;8.674;2022-07-15T04:50:12;94536.00;;;15.20
10598;BMP180;5346;48.766;8.674;2022-07-15T04:53:15;94537.00;;;15.40
10598;BMP180;5346;48.766;8.674;2022-07-15T04:55:50;94534.00;;;15.50
10598;BMP180;5346;48.766;8.674;2022-07-15T04:58:17;94541.00;;;15.70
10598;BMP180;5346;48.766;8.674;2022-07-15T05:00:46;94516.00;;;15.80
10598;BMP180;5346;48.766;8.674;2022-07-15T05:03:19;94516.00;;;15.90
10598;BMP180;5346;48.766;8.674;2022-07-15T05:05:47;94516.00;;;15.90
10598;BMP180;5346;48.766;8.674;2022-07-15T05:08:14;94526.00;;;16.00
10598;BMP180;5346;48.766;8.674;2022-07-15T05:10:48;94511.00;;;16.20
10598;BMP180;5346;48.766;8.674;2022-07-15T05:13:16;94494.00;;;16.30
10598;BMP180;5346;48.766;8.674;2022-07-15T05:15:43;94493.00;;;16.50
10598;BMP180;5346;48.766;8.674;2022-07-15T05:18:16;94530.00;;;16.60
10598;BMP180;5346;48.766;8.674;2022-07-15T05:20:44;94542.00;;;16.70
10598;BMP180;5346;48.766;8.674;2022-07-15T05:23:16;94550.00;;;16.60
10598;BMP180;5346;48.766;8.674;2022-07-15T05:25:53;94554.00;;;16.50
10598;BMP180;5346;48.766;8.674;2022-07-15T05:32:15;94538.00;;;16.40
10598;BMP180;5346;48.766;8.674;2022-07-15T05:34:56;94556.00;;;16.50
10598;BMP180;5346;48.766;8.674;2022-07-15T05:37:26;94555.00;;;16.60
10598;BMP180;5346;48.766;8.674;2022-07-15T05:39:54;94543.00;;;16.70
10598;BMP180;5346;48.766;8.674;2022-07-15T05:42:28;94536.00;;;17.20
10598;BMP180;5346;48.766;8.674;2022-07-15T05:44:57;94548.00;;;17.50
10598;BMP180;5346;48.766;8.674;2022-07-15T05:47:24;94524.00;;;17.80
10598;BMP180;5346;48.766;8.674;2022-07-15T05:49:59;94548.00;;;18.00
10598;BMP180;5346;48.766;8.674;2022-07-15T05:52:26;94534.00;;;18.20
10598;BMP180;5346;48.766;8.674;2022-07-15T05:54:54;94529.00;;;18.20
10598;BMP180;5346;48.766;8.674;2022-07-15T05:57:28;94537.00;;;18.30
10598;BMP180;5346;48.766;8.674;2022-07-15T05:59:55;94548.00;;;18.30
10598;BMP180;5346;48.766;8.674;2022-07-15T06:02:22;94530.00;;;18.60
10598;BMP180;5346;48.766;8.674;2022-07-15T06:04:57;94537.00;;;18.80
10598;BMP180;5346;48.766;8.674;2022-07-15T06:08:14;94552.00;;;19.00
10598;BMP180;5346;48.766;8.674;2022-07-15T06:14:45;94544.00;;;19.40
10598;BMP180;5346;48.766;8.674;2022-07-15T06:17:19;94549.00;;;19.40
10598;BMP180;5346;48.766;8.674;2022-07-15T06:19:46;94552.00;;;19.50
10598;BMP180;5346;48.766;8.674;2022-07-15T06:22:14;94536.00;;;19.80
10598;BMP180;5346;48.766;8.674;2022-07-15T06:24:47;94538.00;;;19.70
10598;BMP180;5346;48.766;8.674;2022-07-15T06:27:15;94567.00;;;20.00
10598;BMP180;5346;48.766;8.674;2022-07-15T06:29:42;94462.00;;;20.20
10598;BMP180;5346;48.766;8.674;2022-07-15T06:32:18;94557.00;;;20.40
10598;BMP180;5346;48.766;8.674;2022-07-15T06:34:46;94546.00;;;20.60
10598;BMP180;5346;48.766;8.674;2022-07-15T06:37:13;94557.00;;;20.80
10598;BMP180;5346;48.766;8.674;2022-07-15T06:39:54;94545.00;;;20.80
10598;BMP180;5346;48.766;8.674;2022-07-15T06:42:22;94550.00;;;20.80
10598;BMP180;5346;48.766;8.674;2022-07-15T06:44:56;94559.00;;;21.10
10598;BMP180;5346;48.766;8.674;2022-07-15T06:47:24;94537.00;;;20.90
10598;BMP180;5346;48.766;8.674;2022-07-15T06:49:51;94567.00;;;20.70
10598;BMP180;5346;48.766;8.674;2022-07-15T06:52:25;94564.00;;;20.70
10598;BMP180;5346;48.766;8.674;2022-07-15T06:54:53;94541.00;;;20.60
10598;BMP180;5346;48.766;8.674;2022-07-15T06:57:20;94553.00;;;20.40
10598;BMP180;5346;48.766;8.674;2022-07-15T06:59:55;94562.00;;;20.20
10598;BMP180;5346;48.766;8.674;2022-07-15T07:02:24;94551.00;;;20.20
10598;BMP180;5346;48.766;8.674;2022-07-15T07:04:51;94562.00;;;20.10
10598;BMP180;5346;48.766;8.674;2022-07-15T07:07:26;94551.00;;;20.10
10598;BMP180;5346;48.766;8.674;2022-07-15T07:09:54;94550.00;;;20.10
10598;BMP180;5346;48.766;8.674;2022-07-15T07:16:29;94539.00;;;20.70
10598;BMP180;5346;48.766;8.674;2022-07-15T07:19:05;94546.00;;;20.70
10598;BMP180;5346;48.766;8.674;2022-07-15T07:21:32;94550.00;;;20.70
10598;BMP180;5346;48.766;8.674;2022-07-15T07:23:59;94554.00;;;21.10
10598;BMP180;5346;48.766;8.674;2022-07-15T07:26:34;94540.00;;;21.30
10598;BMP180;5346;48.766;8.674;2022-07-15T07:29:03;94530.00;;;21.30
10598;BMP180;5346;48.766;8.674;2022-07-15T07:31:30;94560.00;;;20.80
10598;BMP180;5346;48.766;8.674;2022-07-15T07:34:04;94539.00;;;20.60
10598;BMP180;5346;48.766;8.674;2022-07-15T07:36:31;94553.00;;;21.00
10598;BMP180;5346;48.766;8.674;2022-07-15T07:38:59;94557.00;;;21.30
10598;BMP180;5346;48.766;8.674;2022-07-15T07:41:33;94538.00;;;21.30
10598;BMP180;5346;48.766;8.674;2022-07-15T07:44:00;94549.00;;;21.30
10598;BMP180;5346;48.766;8.674;2022-07-15T07:46:28;94531.00;;;21.50
10598;BMP180;5346;48.766;8.674;2022-07-15T07:49:03;94553.00;;;22.00
10598;BMP180;5346;48.766;8.674;2022-07-15T07:51:50;94545.00;;;21.80
10598;BMP180;5346;48.766;8.674;2022-07-15T07:54:25;94556.00;;;21.60
10598;BMP180;5346;48.766;8.674;2022-07-15T07:56:52;94547.00;;;21.40
10598;BMP180;5346;48.766;8.674;2022-07-15T07:59:20;94545.00;;;21.40
10598;BMP180;5346;48.766;8.674;2022-07-15T08:01:54;94544.00;;;21.60
10598;BMP180;5346;48.766;8.674;2022-07-15T08:04:21;94554.00;;;21.80
10598;BMP180;5346;48.766;8.674;2022-07-15T08:06:48;94535.00;;;21.90
10598;BMP180;5346;48.766;8.674;2022-07-15T08:09:23;94525.00;;;22.20
10598;BMP180;5346;48.766;8.674;2022-07-15T08:11:50;94541.00;;;22.70
10598;BMP180;5346;48.766;8.674;2022-07-15T08:14:17;94548.00;;;22.90
10598;BMP180;5346;48.766;8.674;2022-07-15T08:16:51;94544.00;;;23.00
10598;BMP180;5346;48.766;8.674;2022-07-15T08:19:19;94532.00;;;22.60
10598;BMP180;5346;48.766;8.674;2022-07-15T08:21:47;94512.00;;;23.00
10598;BMP180;5346;48.766;8.674;2022-07-15T08:24:21;94527.00;;;22.90
10598;BMP180;5346;48.766;8.674;2022-07-15T08:26:49;94545.00;;;22.80
10598;BMP180;5346;48.766;8.674;2022-07-15T08:29:17;94530.00;;;22.30
10598;BMP180;5346;48.766;8.674;2022-07-15T08:31:51;94535.00;;;22.60
10598;BMP180;5346;48.766;8.674;2022-07-15T08:34:18;94533.00;;;22.60
10598;BMP180;5346;48.766;8.674;2022-07-15T08:36:46;94527.00;;;23.10
10598;BMP180;5346;48.766;8.674;2022-07-15T08:39:26;94533.00;;;22.90
10598;BMP180;5346;48.766;8.674;2022-07-15T08:42:06;94546.00;;;23.00
10598;BMP180;5346;48.766;8.674;2022-07-15T08:44:41;94530.00;;;23.00
10598;BMP180;5346;48.766;8.674;2022-07-15T08:47:09;94564.00;;;23.00
10598;BMP180;5346;48.766;8.674;2022-07-15T08:49:58;94539.00;;;23.30
10598;BMP180;5346;48.766;8.674;2022-07-15T08:52:33;94563.00;;;24.10
10598;BMP180;5346;48.766;8.674;2022-07-15T08:55:01;94543.00;;;23.40
10598;BMP180;5346;48.766;8.674;2022-07-15T08:57:29;94545.00;;;23.00
10598;BMP180;5346;48.766;8.674;2022-07-15T09:00:10;94557.00;;;22.80
10598;BMP180;5346;48.766;8.674;2022-07-15T09:02:38;94559.00;;;22.50
10598;BMP180;5346;48.766;8.674;2022-07-15T09:10:50;94566.00;;;23.40
10598;BMP180;5346;48.766;8.674;2022-07-15T09:16:14;94542.00;;;24.50
10598;BMP180;5346;48.766;8.674;2022-07-15T09:18:50;94559.00;;;24.10
10598;BMP180;5346;48.766;8.674;2022-07-15T09:21:26;94566.00;;;23.00
10598;BMP180;5346;48.766;8.674;2022-07-15T09:23:54;94571.00;;;22.40
10598;BMP180;5346;48.766;8.674;2022-07-15T09:26:34;94547.00;;;22.20
10598;BMP180;5346;48.766;8.674;2022-07-15T09:29:14;94568.00;;;23.40
10598;BMP180;5346;48.766;8.674;2022-07-15T09:32:00;94546.00;;;24.50
10598;BMP180;5346;48.766;8.674;2022-07-15T09:35:05;94558.00;;;24.70
10598;BMP180;5346;48.766;8.674;2022-07-15T09:38:00;94551.00;;;24.90
10598;BMP180;5346;48.766;8.674;2022-07-15T09:40:49;94563.00;;;25.30
10598;BMP180;5346;48.766;8.674;2022-07-15T09:43:16;94551.00;;;25.10
10598;BMP180;5346;48.766;8.674;2022-07-15T09:45:59;94563.00;;;25.90
10598;BMP180;5346;48.766;8.674;2022-07-15T09:48:28;94547.00;;;26.30
10598;BMP180;5346;48.766;8.674;2022-07-15T09:51:01;94572.00;;;25.50
10598;BMP180;5346;48.766;8.674;2022-07-15T09:53:29;94574.00;;;24.60
10598;BMP180;5346;48.766;8.674;2022-07-15T09:55:56;94576.00;;;24.00
10598;BMP180;5346;48.766;8.674;2022-07-15T09:58:31;94590.00;;;23.40
10598;BMP180;5346;48.766;8.674;2022-07-15T10:00:59;94596.00;;;23.20
10598;BMP180;5346;48.766;8.674;2022-07-15T10:03:26;94573.00;;;23.10
10598;BMP180;5346;48.766;8.674;2022-07-15T10:06:01;94566.00;;;24.40
10598;BMP180;5346;48.766;8.674;2022-07-15T10:08:34;94573.00;;;25.00
10598;BMP180;5346;48.766;8.674;2022-07-15T10:11:09;94575.00;;;25.50
10598;BMP180;5346;48.766;8.674;2022-07-15T10:13:53;94562.00;;;26.20
10598;BMP180;5346;48.766;8.674;2022-07-15T10:26:16;94558.00;;;25.00
10598;BMP180;5346;48.766;8.674;2022-07-15T10:29:02;94577.00;;;24.30
10598;BMP180;5346;48.766;8.674;2022-07-15T10:31:32;94566.00;;;23.90
10598;BMP180;5346;48.766;8.674;2022-07-15T10:39:57;94576.00;;;23.70
10598;BMP180;5346;48.766;8.674;2022-07-15T10:43:01;94549.00;;;23.00
10598;BMP180;5346;48.766;8.674;2022-07-15T10:46:26;94540.00;;;25.00
10598;BMP180;5346;48.766;8.674;2022-07-15T10:56:50;94557.00;;;26.00
10598;BMP180;5346;48.766;8.674;2022-07-15T10:59:21;94557.00;;;24.20
10598;BMP180;5346;48.766;8.674;2022-07-15T11:02:10;94553.00;;;23.70
10598;BMP180;5346;48.766;8.674;2022-07-15T11:04:45;94545.00;;;23.70
10598;BMP180;5346;48.766;8.674;2022-07-15T11:12:58;94498.00;;;26.30
10598;BMP180;5346;48.766;8.674;2022-07-15T11:15:27;94522.00;;;26.00
10598;BMP180;5346;48.766;8.674;2022-07-15T11:18:03;94495.00;;;26.50
10598;BMP180;5346;48.766;8.674;2022-07-15T11:20:37;94524.00;;;27.00
10598;BMP180;5346;48.766;8.674;2022-07-15T11:23:11;94518.00;;;26.50
10598;BMP180;5346;48.766;8.674;2022-07-15T11:25:48;94511.00;;;26.30
10598;BMP180;5346;48.766;8.674;2022-07-15T11:28:21;94514.00;;;26.40
10598;BMP180;5346;48.766;8.674;2022-07-15T11:30:50;94531.00;;;26.40
10598;BMP180;5346;48.766;8.674;2022-07-15T11:33:24;94529.00;;;26.80
10598;BMP180;5346;48.766;8.674;2022-07-15T11:36:02;94498.00;;;27.20
10598;BMP180;5346;48.766;8.674;2022-07-15T11:38:39;94523.00;;;27.30
10598;BMP180;5346;48.766;8.674;2022-07-15T11:41:20;94521.00;;;26.80
10598;BMP180;5346;48.766;8.674;2022-07-15T11:44:09;94544.00;;;26.30
10598;BMP180;5346;48.766;8.674;2022-07-15T11:47:01;94532.00;;;26.50
10598;BMP180;5346;48.766;8.674;2022-07-15T11:49:38;94514.00;;;26.20
10598;BMP180;5346;48.766;8.674;2022-07-15T11:52:25;94521.00;;;26.30
10598;BMP180;5346;48.766;8.674;2022-07-15T11:54:52;94527.00;;;26.70
10598;BMP180;5346;48.766;8.674;2022-07-15T11:57:33;94530.00;;;27.30
10598;BMP180;5346;48.766;8.674;2022-07-15T12:00:01;94518.00;;;26.30
10598;BMP180;5346;48.766;8.674;2022-07-15T12:02:34;94516.00;;;26.30
10598;BMP180;5346;48.766;8.674;2022-07-15T12:05:08;94521.00;;;26.50
10598;BMP180;5346;48.766;8.674;2022-07-15T12:07:47;94520.00;;;27.20
10598;BMP180;5346;48.766;8.674;2022-07-15T12:10:15;94528.00;;;26.30
10598;BMP180;5346;48.766;8.674;2022-07-15T12:12:55;94544.00;;;26.00
10598;BMP180;5346;48.766;8.674;2022-07-15T12:15:24;94541.00;;;25.50
10598;BMP180;5346;48.766;8.674;2022-07-15T12:17:58;94525.00;;;25.70
10598;BMP180;5346;48.766;8.674;2022-07-15T12:20:26;94528.00;;;25.00
10598;BMP180;5346;48.766;8.674;2022-07-15T12:23:09;94542.00;;;25.10
10598;BMP180;5346;48.766;8.674;2022-07-15T12:25:43;94536.00;;;25.40
10598;BMP180;5346;48.766;8.674;2022-07-15T12:28:11;94529.00;;;26.10
10598;BMP180;5346;48.766;8.674;2022-07-15T12:30:40;94520.00;;;26.30
10598;BMP180;5346;48.766;8.674;2022-07-15T12:33:22;94514.00;;;26.60
10598;BMP180;5346;48.766;8.674;2022-07-15T12:36:17;94539.00;;;26.60
10598;BMP180;5346;48.766;8.674;2022-07-15T12:39:19;94523.00;;;25.80
10598;BMP180;5346;48.766;8.674;2022-07-15T12:42:04;94517.00;;;26.10
10598;BMP180;5346;48.766;8.674;2022-07-15T12:44:38;94553.00;;;25.90
10598;BMP180;5346;48.766;8.674;2022-07-15T12:47:05;94514.00;;;26.00
10598;BMP180;5346;48.766;8.674;2022-07-15T12:49:38;94525.00;;;26.00
10598;BMP180;5346;48.766;8.674;2022-07-15T12:52:37;94523.00;;;25.40
10598;BMP180;5346;48.766;8.674;2022-07-15T12:55:16;94525.00;;;25.30
10598;BMP180;5346;48.766;8.674;2022-07-15T12:58:06;94530.00;;;25.90
10598;BMP180;5346;48.766;8.674;2022-07-15T13:00:35;94511.00;;;26.40
10598;BMP180;5346;48.766;8.674;2022-07-15T13:03:22;94523.00;;;25.70
10598;BMP180;5346;48.766;8.674;2022-07-15T13:05:54;94513.00;;;26.20
10598;BMP180;5346;48.766;8.674;2022-07-15T13:08:35;94532.00;;;25.90
10598;BMP180;5346;48.766;8.674;2022-07-15T13:11:07;94530.00;;;26.10
10598;BMP180;5346;48.766;8.674;2022-07-15T13:13:41;94523.00;;;26.70
10598;BMP180;5346;48.766;8.674;2022-07-15T13:16:09;94509.00;;;26.70
10598;BMP180;5346;48.766;8.674;2022-07-15T13:18:37;94513.00;;;26.30
10598;BMP180;5346;48.766;8.674;2022-07-15T13:21:11;94524.00;;;26.10
10598;BMP180;5346;48.766;8.674;2022-07-15T13:23:38;94510.00;;;26.50
10598;BMP180;5346;48.766;8.674;2022-07-15T13:26:05;94515.00;;;26.80
10598;BMP180;5346;48.766;8.674;2022-07-15T13:28:38;94520.00;;;26.90
10598;BMP180;5346;48.766;8.674;2022-07-15T13:31:06;94505.00;;;27.10
10598;BMP180;5346;48.766;8.674;2022-07-15T13:33:33;94514.00;;;27.20
10598;BMP180;5346;48.766;8.674;2022-07-15T13:36:18;94505.00;;;27.00
10598;BMP180;5346;48.766;8.674;2022-07-15T13:38:52;94525.00;;;26.30
10598;BMP180;5346;48.766;8.674;2022-07-15T13:41:26;94517.00;;;26.40
10598;BMP180;5346;48.766;8.674;2022-07-15T13:43:53;94522.00;;;26.20
10598;BMP180;5346;48.766;8.674;2022-07-15T13:46:20;94515.00;;;26.00
10598;BMP180;5346;48.766;8.674;2022-07-15T13:49:01;94521.00;;;26.10
10598;BMP180;5346;48.766;8.674;2022-07-15T13:51:29;94525.00;;;26.30
10598;BMP180;5346;48.766;8.674;2022-07-15T13:54:10;94532.00;;;25.80
10598;BMP180;5346;48.766;8.674;2022-07-15T13:56:37;94516.00;;;24.80
10598;BMP180;5346;48.766;8.674;2022-07-15T13:59:12;94525.00;;;25.30
10598;BMP180;5346;48.766;8.674;2022-07-15T14:01:39;94535.00;;;24.90
10598;BMP180;5346;48.766;8.674;2022-07-15T14:04:06;94527.00;;;25.20
10598;BMP180;5346;48.766;8.674;2022-07-15T14:06:40;94524.00;;;25.20
10598;BMP180;5346;48.766;8.674;2022-07-15T14:09:08;94528.00;;;25.60
10598;BMP180;5346;48.766;8.674;2022-07-15T14:11:35;94541.00;;;25.50
10598;BMP180;5346;48.766;8.674;2022-07-15T14:14:09;94517.00;;;25.30
10598;BMP180;5346;48.766;8.674;2022-07-15T14:16:37;94547.00;;;25.40
10598;BMP180;5346;48.766;8.674;2022-07-15T14:19:04;94522.00;;;25.40
10598;BMP180;5346;48.766;8.674;2022-07-15T14:21:38;94526.00;;;25.60
10598;BMP180;5346;48.766;8.674;2022-07-15T14:24:11;94504.00;;;25.60
10598;BMP180;5346;48.766;8.674;2022-07-15T14:26:46;94521.00;;;25.20
10598;BMP180;5346;48.766;8.674;2022-07-15T14:29:13;94517.00;;;25.50
10598;BMP180;5346;48.766;8.674;2022-07-15T14:31:40;94504.00;;;25.20
10598;BMP180;5346;48.766;8.674;2022-07-15T14:34:24;94515.00;;;24.70
10598;BMP180;5346;48.766;8.674;2022-07-15T14:36:51;94515.00;;;24.90
10598;BMP180;5346;48.766;8.674;2022-07-15T14:39:45;94524.00;;;24.60
10598;BMP180;5346;48.766;8.674;2022-07-15T14:42:26;94502.00;;;24.50
10598;BMP180;5346;48.766;8.674;2022-07-15T14:45:00;94502.00;;;24.50
10598;BMP180;5346;48.766;8.674;2022-07-15T14:47:27;94522.00;;;24.50
10598;BMP180;5346;48.766;8.674;2022-07-15T14:49:55;94517.00;;;24.60
10598;BMP180;5346;48.766;8.674;2022-07-15T14:52:28;94511.00;;;24.60
10598;BMP180;5346;48.766;8.674;2022-07-15T14:54:56;94526.00;;;24.70
10598;BMP180;5346;48.766;8.674;2022-07-15T14:57:23;94501.00;;;24.50
10598;BMP180;5346;48.766;8.674;2022-07-15T14:59:56;94512.00;;;24.80
10598;BMP180;5346;48.766;8.674;2022-07-15T15:02:24;94527.00;;;24.70
10598;BMP180;5346;48.766;8.674;2022-07-15T15:04:51;94517.00;;;24.80
10598;BMP180;5346;48.766;8.674;2022-07-15T15:07:24;94513.00;;;24.80
10598;BMP180;5346;48.766;8.674;2022-07-15T15:09:51;94514.00;;;24.70
10598;BMP180;5346;48.766;8.674;2022-07-15T15:12:19;94498.00;;;24.50
10598;BMP180;5346;48.766;8.674;2022-07-15T15:14:53;94522.00;;;24.50
10598;BMP180;5346;48.766;8.674;2022-07-15T15:17:20;94525.00;;;24.30
10598;BMP180;5346;48.766;8.674;2022-07-15T15:19:47;94529.00;;;24.50
10598;BMP180;5346;48.766;8.674;2022-07-15T15:22:22;94519.00;;;24.40
10598;BMP180;5346;48.766;8.674;2022-07-15T15:24:49;94516.00;;;23.70
10598;BMP180;5346;48.766;8.674;2022-07-15T15:27:16;94534.00;;;24.00
10598;BMP180;5346;48.766;8.674;2022-07-15T15:29:49;94518.00;;;24.00
10598;BMP180;5346;48.766;8.674;2022-07-15T15:32:17;94522.00;;;24.00
10598;BMP180;5346;48.766;8.674;2022-07-15T15:34:44;94543.00;;;24.00
10598;BMP180;5346;48.766;8.674;2022-07-15T15:37:19;94518.00;;;24.30
10598;BMP180;5346;48.766;8.674;2022-07-15T15:39:46;94517.00;;;24.10
10598;BMP180;5346;48.766;8.674;2022-07-15T15:42:26;94517.00;;;23.70